createdAt,value
2023-01-28T00:00:29.717Z,101449.97
2023-01-28T00:01:31.216Z,101441.88
2023-01-28T00:02:35.915Z,101413.13
2023-01-28T00:03:37.608Z,101423.72
2023-01-28T00:04:40.155Z,101443.66
2023-01-28T00:05:41.768Z,101435.06
2023-01-28T00:06:44.547Z,101446.84
2023-01-28T00:07:49.070Z,101450.09
2023-01-28T00:08:51.579Z,101444.59
2023-01-28T00:09:53.224Z,101429.84
2023-01-28T00:10:56.000Z,101428.63
2023-01-28T00:11:57.702Z,101451.53
2023-01-28T00:13:00.868Z,101453.31
2023-01-28T00:14:04.619Z,101419.84
2023-01-28T00:15:08.248Z,101449.63
2023-01-28T00:16:10.120Z,101437.50
2023-01-28T00:17:13.293Z,101440.22
2023-01-28T00:18:16.590Z,101445.38
2023-01-28T00:19:19.147Z,101437.94
2023-01-28T00:20:20.859Z,101441.44
2023-01-28T00:21:23.530Z,101443.38
2023-01-28T00:22:25.264Z,101448.03
2023-01-28T00:23:28.619Z,101447.88
2023-01-28T00:24:30.562Z,101446.91
2023-01-28T00:25:32.996Z,101428.28
2023-01-28T00:26:34.539Z,101445.53
2023-01-28T00:27:37.221Z,101437.91
2023-01-28T00:28:38.874Z,101439.41
2023-01-28T00:29:41.365Z,101452.06
2023-01-28T00:30:42.837Z,101430.66
2023-01-28T00:31:45.539Z,101450.59
2023-01-28T00:32:47.079Z,101440.53
2023-01-28T00:33:51.983Z,101446.53
2023-01-28T00:34:53.498Z,101449.19
2023-01-28T00:36:00.627Z,101453.59
2023-01-28T00:37:02.180Z,101435.06
2023-01-28T00:38:04.645Z,101457.38
2023-01-28T00:39:06.779Z,101452.94
2023-01-28T00:40:10.813Z,101445.81
2023-01-28T00:41:14.012Z,101434.81
2023-01-28T00:42:17.002Z,101440.94
2023-01-28T00:43:18.775Z,101446.00
2023-01-28T00:44:22.362Z,101431.19
2023-01-28T00:45:23.822Z,101452.78
2023-01-28T00:46:27.812Z,101454.56
2023-01-28T00:47:29.472Z,101434.00
2023-01-28T00:48:32.045Z,101440.28
2023-01-28T00:49:34.866Z,101452.78
2023-01-28T00:50:37.293Z,101443.19
2023-01-28T00:51:38.795Z,101453.44
2023-01-28T00:52:41.507Z,101440.16
2023-01-28T00:53:43.391Z,101442.47
2023-01-28T00:54:45.781Z,101443.97
2023-01-28T00:55:47.475Z,101457.84
2023-01-28T00:56:49.948Z,101441.50
2023-01-28T00:57:51.663Z,101428.44
2023-01-28T00:58:54.145Z,101462.66
2023-01-28T00:59:55.618Z,101457.38
2023-01-28T01:00:58.133Z,101429.41
2023-01-28T01:02:12.439Z,101446.78
2023-01-28T01:03:15.096Z,101448.28
2023-01-28T01:04:26.963Z,101457.44
2023-01-28T01:05:29.933Z,101457.94
2023-01-28T01:06:35.393Z,101458.03
2023-01-28T01:07:41.876Z,101458.06
2023-01-28T01:08:50.029Z,101461.38
2023-01-28T01:09:51.529Z,101439.50
2023-01-28T01:10:53.971Z,101456.63
2023-01-28T01:11:55.426Z,101445.41
2023-01-28T01:12:59.091Z,101456.63
2023-01-28T01:14:01.019Z,101461.25
2023-01-28T01:15:03.855Z,101447.44
2023-01-28T01:16:07.875Z,101457.81
2023-01-28T01:17:10.636Z,101456.56
2023-01-28T01:18:12.161Z,101456.78
2023-01-28T01:19:14.656Z,101454.34
2023-01-28T01:20:18.973Z,101459.28
2023-01-28T01:21:24.950Z,101456.78
2023-01-28T01:22:26.477Z,101448.31
2023-01-28T01:23:29.999Z,101436.47
2023-01-28T01:24:33.924Z,101453.16
2023-01-28T01:25:36.488Z,101448.22
2023-01-28T01:26:37.982Z,101454.91
2023-01-28T01:27:40.787Z,101439.78
2023-01-28T01:28:42.812Z,101463.19
2023-01-28T01:29:45.285Z,101458.69
2023-01-28T01:30:47.258Z,101458.22
2023-01-28T01:31:49.762Z,101451.88
2023-01-28T01:32:51.296Z,101457.94
2023-01-28T01:33:53.988Z,101455.50
2023-01-28T01:34:55.498Z,101450.72
2023-01-28T01:35:58.535Z,101458.88
2023-01-28T01:37:01.370Z,101455.69
2023-01-28T01:38:04.144Z,101448.38
2023-01-28T01:39:05.660Z,101462.69
2023-01-28T01:40:10.341Z,101450.88
2023-01-28T01:41:23.288Z,101439.56
2023-01-28T01:42:26.501Z,101467.50
2023-01-28T01:43:50.130Z,101464.75
2023-01-28T01:44:58.866Z,101464.19
2023-01-28T01:46:01.568Z,101469.63
2023-01-28T01:47:04.307Z,101462.66
2023-01-28T01:48:13.988Z,101469.59
2023-01-28T01:49:20.951Z,101469.47
2023-01-28T01:50:31.245Z,101472.50
2023-01-28T01:51:37.179Z,101455.31
2023-01-28T01:52:42.266Z,101450.75
2023-01-28T01:53:47.600Z,101475.31
2023-01-28T01:54:53.916Z,101464.59
2023-01-28T01:56:01.334Z,101474.28
2023-01-28T01:57:04.025Z,101440.44
2023-01-28T01:58:11.981Z,101461.00
2023-01-28T01:59:18.931Z,101478.34
2023-01-28T02:00:22.930Z,101477.06
2023-01-28T02:01:27.793Z,101481.44
2023-01-28T02:02:30.262Z,101459.13
2023-01-28T02:03:49.147Z,101476.38
2023-01-28T02:04:50.896Z,101470.56
2023-01-28T02:05:53.562Z,101445.53
2023-01-28T02:06:55.593Z,101477.94
2023-01-28T02:08:20.949Z,101484.66
2023-01-28T02:09:27.235Z,101475.31
2023-01-28T02:10:29.960Z,101483.66
2023-01-28T02:11:33.814Z,101488.19
2023-01-28T02:12:38.358Z,101484.47
2023-01-28T02:13:44.646Z,101488.25
2023-01-28T02:14:50.938Z,101489.28
2023-01-28T02:15:53.292Z,101489.09
2023-01-28T02:16:56.395Z,101479.72
2023-01-28T02:17:58.018Z,101483.16
2023-01-28T02:19:00.698Z,101491.34
2023-01-28T02:20:04.567Z,101501.66
2023-01-28T02:21:48.983Z,101503.13
2023-01-28T02:23:20.620Z,101486.44
2023-01-28T02:24:44.778Z,101507.94
2023-01-28T02:26:15.416Z,101508.06
2023-01-28T02:27:27.345Z,101514.47
2023-01-28T02:28:38.559Z,101514.59
2023-01-28T02:29:48.761Z,101516.91
2023-01-28T02:30:56.425Z,101489.63
2023-01-28T02:32:04.198Z,101492.72
2023-01-28T02:33:12.577Z,101519.72
2023-01-28T02:34:19.786Z,101489.69
2023-01-28T02:35:30.038Z,101522.34
2023-01-28T02:36:40.589Z,101518.75
2023-01-28T02:37:48.782Z,101509.53
2023-01-28T02:38:53.683Z,101504.44
2023-01-28T02:40:01.439Z,101512.09
2023-01-28T02:41:08.864Z,101489.56
2023-01-28T02:42:16.346Z,101516.97
2023-01-28T02:43:17.849Z,101511.94
2023-01-28T02:44:21.632Z,101509.41
2023-01-28T02:45:46.051Z,101492.81
2023-01-28T02:47:05.963Z,101488.81
2023-01-28T02:48:07.489Z,101517.91
2023-01-28T02:49:12.943Z,101514.16
2023-01-28T02:50:17.463Z,101512.81
2023-01-28T02:51:29.333Z,101515.09
2023-01-28T02:52:58.769Z,101515.09
2023-01-28T02:54:06.705Z,101520.25
2023-01-28T02:55:14.769Z,101518.38
2023-01-28T02:56:29.336Z,101516.72
2023-01-28T02:57:39.098Z,101510.19
2023-01-28T02:58:47.541Z,101515.63
2023-01-28T03:00:01.671Z,101496.94
2023-01-28T03:01:14.561Z,101519.75
2023-01-28T03:02:23.385Z,101521.03
2023-01-28T03:03:30.713Z,101524.47
2023-01-28T03:04:36.842Z,101515.97
2023-01-28T03:05:58.295Z,101521.94
2023-01-28T03:07:05.638Z,101520.53
2023-01-28T03:08:24.306Z,101513.06
2023-01-28T03:09:27.844Z,101521.81
2023-01-28T03:10:33.259Z,101522.72
2023-01-28T03:11:59.062Z,101528.34
2023-01-28T03:13:19.483Z,101518.63
2023-01-28T03:14:42.256Z,101501.47
2023-01-28T03:16:06.427Z,101526.25
2023-01-28T03:17:33.485Z,101520.16
2023-01-28T03:19:00.221Z,101523.44
2023-01-28T03:20:20.810Z,101518.25
2023-01-28T03:21:45.564Z,101524.50
2023-01-28T03:23:10.616Z,101525.63
2023-01-28T03:24:35.741Z,101527.78
2023-01-28T03:25:59.225Z,101523.94
2023-01-28T03:27:24.898Z,101526.19
2023-01-28T03:28:48.270Z,101522.44
2023-01-28T03:30:11.616Z,101525.78
2023-01-28T03:31:35.042Z,101520.72
2023-01-28T03:32:56.907Z,101532.91
2023-01-28T03:34:19.060Z,101537.75
2023-01-28T03:35:41.801Z,101537.66
2023-01-28T03:36:50.327Z,101536.66
2023-01-28T03:37:53.115Z,101527.97
2023-01-28T03:38:54.790Z,101543.56
2023-01-28T03:39:58.081Z,101511.00
2023-01-28T03:41:01.810Z,101542.19
2023-01-28T03:42:07.000Z,101538.47
2023-01-28T03:43:08.594Z,101540.41
2023-01-28T03:44:28.711Z,101541.06
2023-01-28T03:45:31.268Z,101544.69
2023-01-28T03:46:35.859Z,101528.69
2023-01-28T03:47:40.558Z,101542.81
2023-01-28T03:48:42.532Z,101540.22
2023-01-28T03:49:49.028Z,101517.56
2023-01-28T03:50:51.036Z,101545.06
2023-01-28T03:51:53.562Z,101553.81
2023-01-28T03:52:55.085Z,101548.06
2023-01-28T03:54:04.877Z,101553.00
2023-01-28T03:55:14.137Z,101556.91
2023-01-28T03:56:18.588Z,101553.44
2023-01-28T03:57:23.715Z,101550.09
2023-01-28T03:58:27.277Z,101545.44
2023-01-28T03:59:29.811Z,101522.13
2023-01-28T04:00:32.738Z,101549.41
2023-01-28T04:01:36.557Z,101546.75
2023-01-28T04:02:40.224Z,101539.81
2023-01-28T04:03:43.003Z,101525.78
2023-01-28T04:04:44.765Z,101546.75
2023-01-28T04:05:58.527Z,101548.53
2023-01-28T04:07:00.235Z,101538.66
2023-01-28T04:08:02.738Z,101548.06
2023-01-28T04:09:06.010Z,101536.25
2023-01-28T04:10:10.008Z,101526.00
2023-01-28T04:11:15.748Z,101526.88
2023-01-28T04:12:18.632Z,101550.22
2023-01-28T04:13:23.451Z,101550.00
2023-01-28T04:14:25.911Z,101544.81
2023-01-28T04:15:27.383Z,101538.91
2023-01-28T04:16:29.876Z,101542.09
2023-01-28T04:17:32.821Z,101544.94
2023-01-28T04:18:35.613Z,101536.16
2023-01-28T04:19:38.579Z,101545.28
2023-01-28T04:20:40.268Z,101551.38
2023-01-28T04:21:42.892Z,101561.16
2023-01-28T04:22:44.451Z,101558.28
2023-01-28T04:23:46.904Z,101551.31
2023-01-28T04:24:48.382Z,101534.72
2023-01-28T04:25:51.150Z,101558.00
2023-01-28T04:26:54.315Z,101551.84
2023-01-28T04:27:58.097Z,101550.50
2023-01-28T04:28:59.598Z,101556.81
2023-01-28T04:30:02.223Z,101552.94
2023-01-28T04:31:03.956Z,101552.00
2023-01-28T04:32:06.696Z,101561.59
2023-01-28T04:33:09.597Z,101562.16
2023-01-28T04:34:11.997Z,101560.88
2023-01-28T04:35:13.905Z,101563.13
2023-01-28T04:36:16.513Z,101563.03
2023-01-28T04:37:18.951Z,101544.41
2023-01-28T04:38:20.673Z,101561.47
2023-01-28T04:39:23.545Z,101560.41
2023-01-28T04:40:25.070Z,101558.78
2023-01-28T04:41:27.520Z,101561.09
2023-01-28T04:42:29.043Z,101556.13
2023-01-28T04:43:31.768Z,101564.38
2023-01-28T04:44:34.225Z,101562.00
2023-01-28T04:45:35.784Z,101569.59
2023-01-28T04:46:38.292Z,101557.56
2023-01-28T04:47:39.963Z,101567.63
2023-01-28T04:48:43.832Z,101560.53
2023-01-28T04:49:45.443Z,101562.72
2023-01-28T04:50:47.942Z,101553.69
2023-01-28T04:51:49.417Z,101561.47
2023-01-28T04:52:51.974Z,101561.88
2023-01-28T04:53:53.543Z,101554.88
2023-01-28T04:54:56.002Z,101559.81
2023-01-28T04:55:58.289Z,101547.13
2023-01-28T04:57:00.825Z,101570.94
2023-01-28T04:58:02.601Z,101544.22
2023-01-28T04:59:05.134Z,101568.84
2023-01-28T05:00:08.077Z,101566.91
2023-01-28T05:01:11.071Z,101572.72
2023-01-28T05:02:12.667Z,101572.63
2023-01-28T05:03:15.343Z,101565.88
2023-01-28T05:04:18.271Z,101582.25
2023-01-28T05:05:20.858Z,101575.81
2023-01-28T05:06:22.422Z,101569.19
2023-01-28T05:07:25.042Z,101561.72
2023-01-28T05:08:26.728Z,101575.88
2023-01-28T05:09:29.166Z,101543.84
2023-01-28T05:10:30.619Z,101574.06
2023-01-28T05:11:33.104Z,101581.81
2023-01-28T05:12:34.582Z,101579.56
2023-01-28T05:13:37.072Z,101568.53
2023-01-28T05:14:38.735Z,101577.38
2023-01-28T05:15:41.255Z,101581.88
2023-01-28T05:16:42.952Z,101585.81
2023-01-28T05:17:46.146Z,101581.25
2023-01-28T05:18:48.116Z,101581.75
2023-01-28T05:19:51.928Z,101561.41
2023-01-28T05:20:53.408Z,101589.50
2023-01-28T05:21:55.879Z,101587.84
2023-01-28T05:22:57.431Z,101595.38
2023-01-28T05:23:59.907Z,101595.31
2023-01-28T05:25:04.002Z,101589.41
2023-01-28T05:26:06.508Z,101565.03
2023-01-28T05:27:08.056Z,101590.69
2023-01-28T05:28:10.486Z,101601.59
2023-01-28T05:29:12.156Z,101602.59
2023-01-28T05:30:15.374Z,101598.34
2023-01-28T05:31:18.238Z,101601.31
2023-01-28T05:32:20.907Z,101579.94
2023-01-28T05:33:22.715Z,101593.91
2023-01-28T05:34:26.015Z,101560.09
2023-01-28T05:35:30.130Z,101597.38
2023-01-28T05:36:31.641Z,101566.50
2023-01-28T05:37:34.406Z,101607.66
2023-01-28T05:38:36.327Z,101585.94
2023-01-28T05:39:40.808Z,101606.78
2023-01-28T05:40:42.524Z,101601.59
2023-01-28T05:41:45.591Z,101600.97
2023-01-28T05:42:47.473Z,101581.28
2023-01-28T05:43:50.359Z,101605.06
2023-01-28T05:44:52.013Z,101576.88
2023-01-28T05:45:54.781Z,101596.94
2023-01-28T05:46:56.469Z,101592.06
2023-01-28T05:48:00.023Z,101598.59
2023-01-28T05:49:01.884Z,101600.81
2023-01-28T05:50:04.872Z,101605.47
2023-01-28T05:51:08.360Z,101610.63
2023-01-28T05:52:11.846Z,101578.91
2023-01-28T05:53:13.721Z,101585.94
2023-01-28T05:54:18.333Z,101615.31
2023-01-28T05:55:20.943Z,101592.19
2023-01-28T05:56:23.948Z,101616.50
2023-01-28T05:57:25.784Z,101574.41
2023-01-28T05:58:31.045Z,101608.34
2023-01-28T05:59:32.714Z,101603.53
2023-01-28T06:00:35.351Z,101611.16
2023-01-28T06:01:37.171Z,101617.34
2023-01-28T06:02:39.959Z,101615.19
2023-01-28T06:03:41.839Z,101588.91
2023-01-28T06:04:44.581Z,101588.09
2023-01-28T06:05:46.319Z,101593.00
2023-01-28T06:06:50.341Z,101627.22
2023-01-28T06:07:51.908Z,101602.78
2023-01-28T06:08:55.049Z,101626.94
2023-01-28T06:09:57.021Z,101595.50
2023-01-28T06:10:59.880Z,101621.69
2023-01-28T06:12:01.580Z,101618.84
2023-01-28T06:13:04.300Z,101616.81
2023-01-28T06:14:05.926Z,101618.22
2023-01-28T06:15:09.991Z,101622.19
2023-01-28T06:16:11.580Z,101597.28
2023-01-28T06:17:14.127Z,101623.59
2023-01-28T06:18:16.664Z,101614.72
2023-01-28T06:19:19.171Z,101596.22
2023-01-28T06:20:20.870Z,101592.34
2023-01-28T06:21:23.546Z,101611.00
2023-01-28T06:22:27.072Z,101625.50
2023-01-28T06:23:29.860Z,101620.59
2023-01-28T06:24:31.678Z,101606.97
2023-01-28T06:25:34.313Z,101594.22
2023-01-28T06:26:35.989Z,101613.03
2023-01-28T06:27:38.751Z,101608.84
2023-01-28T06:28:40.536Z,101626.00
2023-01-28T06:29:43.017Z,101634.44
2023-01-28T06:30:44.593Z,101633.06
2023-01-28T06:31:47.609Z,101604.72
2023-01-28T06:32:54.398Z,101613.25
2023-01-28T06:33:56.994Z,101638.47
2023-01-28T06:34:58.506Z,101642.59
2023-01-28T06:36:03.420Z,101635.03
2023-01-28T06:37:05.104Z,101640.41
2023-01-28T06:38:09.258Z,101642.41
2023-01-28T06:39:12.206Z,101638.25
2023-01-28T06:40:14.188Z,101616.63
2023-01-28T06:41:16.743Z,101648.88
2023-01-28T06:42:18.371Z,101648.25
2023-01-28T06:43:20.817Z,101622.75
2023-01-28T06:44:23.480Z,101637.47
2023-01-28T06:45:26.249Z,101653.19
2023-01-28T06:46:28.218Z,101662.97
2023-01-28T06:47:30.852Z,101667.00
2023-01-28T06:48:32.926Z,101668.25
2023-01-28T06:49:35.417Z,101671.34
2023-01-28T06:50:37.101Z,101659.91
2023-01-28T06:51:39.593Z,101645.03
2023-01-28T06:52:41.654Z,101658.97
2023-01-28T06:53:46.191Z,101639.97
2023-01-28T06:54:48.380Z,101656.09
2023-01-28T06:55:50.905Z,101659.44
2023-01-28T06:56:52.428Z,101659.53
2023-01-28T06:57:54.882Z,101668.06
2023-01-28T06:58:56.448Z,101675.06
2023-01-28T06:59:58.878Z,101670.31
2023-01-28T07:01:00.732Z,101667.31
2023-01-28T07:02:03.428Z,101650.56
2023-01-28T07:03:05.515Z,101676.22
2023-01-28T07:04:08.874Z,101654.16
2023-01-28T07:05:11.142Z,101674.91
2023-01-28T07:06:13.597Z,101674.63
2023-01-28T07:07:15.057Z,101670.16
2023-01-28T07:08:17.679Z,101672.25
2023-01-28T07:09:20.605Z,101674.75
2023-01-28T07:10:23.902Z,101671.16
2023-01-28T07:11:26.443Z,101685.63
2023-01-28T07:12:28.269Z,101659.00
2023-01-28T07:13:30.914Z,101679.53
2023-01-28T07:14:32.630Z,101677.72
2023-01-28T07:15:35.062Z,101663.38
2023-01-28T07:16:36.612Z,101678.22
2023-01-28T07:17:40.362Z,101676.75
2023-01-28T07:18:41.861Z,101663.44
2023-01-28T07:19:44.361Z,101673.56
2023-01-28T07:20:45.922Z,101662.22
2023-01-28T07:21:48.439Z,101643.19
2023-01-28T07:22:49.984Z,101677.81
2023-01-28T07:23:52.715Z,101675.97
2023-01-28T07:24:55.862Z,101681.97
2023-01-28T07:26:02.965Z,101667.97
2023-01-28T07:27:04.688Z,101673.44
2023-01-28T07:28:07.703Z,101677.28
2023-01-28T07:29:09.261Z,101681.41
2023-01-28T07:30:13.305Z,101674.19
2023-01-28T07:31:14.985Z,101679.94
2023-01-28T07:32:17.454Z,101680.00
2023-01-28T07:33:19.068Z,101676.97
2023-01-28T07:34:21.552Z,101673.50
2023-01-28T07:35:23.349Z,101667.38
2023-01-28T07:36:26.080Z,101680.06
2023-01-28T07:37:27.556Z,101677.72
2023-01-28T07:38:30.129Z,101659.13
2023-01-28T07:39:31.759Z,101682.31
2023-01-28T07:40:35.904Z,101677.91
2023-01-28T07:41:37.417Z,101693.13
2023-01-28T07:42:41.119Z,101689.72
2023-01-28T07:43:43.745Z,101690.94
2023-01-28T07:44:45.326Z,101690.69
2023-01-28T07:45:48.690Z,101694.75
2023-01-28T07:46:50.238Z,101689.00
2023-01-28T07:47:57.620Z,101677.00
2023-01-28T07:48:59.120Z,101691.53
2023-01-28T07:50:01.536Z,101690.75
2023-01-28T07:51:04.516Z,101688.59
2023-01-28T07:52:06.536Z,101692.22
2023-01-28T07:53:10.736Z,101684.50
2023-01-28T07:54:12.420Z,101680.91
2023-01-28T07:55:15.484Z,101684.69
2023-01-28T07:56:19.293Z,101677.53
2023-01-28T07:57:23.224Z,101682.22
2023-01-28T07:58:25.887Z,101681.06
2023-01-28T07:59:28.454Z,101695.16
2023-01-28T08:00:33.579Z,101677.78
2023-01-28T08:01:35.151Z,101685.50
2023-01-28T08:02:37.671Z,101693.13
2023-01-28T08:03:39.270Z,101699.34
2023-01-28T08:04:41.766Z,101697.06
2023-01-28T08:05:47.604Z,101683.53
2023-01-28T08:06:49.098Z,101699.84
2023-01-28T08:07:51.579Z,101699.50
2023-01-28T08:08:53.483Z,101693.72
2023-01-28T08:09:55.864Z,101696.75
2023-01-28T08:10:58.357Z,101693.00
2023-01-28T08:12:03.357Z,101696.38
2023-01-28T08:13:06.913Z,101693.06
2023-01-28T08:14:08.468Z,101688.03
2023-01-28T08:15:11.489Z,101683.66
2023-01-28T08:16:13.218Z,101685.34
2023-01-28T08:17:15.634Z,101697.06
2023-01-28T08:18:17.548Z,101692.88
2023-01-28T08:19:21.746Z,101704.25
2023-01-28T08:20:23.741Z,101689.00
2023-01-28T08:21:26.402Z,101695.28
2023-01-28T08:22:28.353Z,101689.00
2023-01-28T08:23:30.964Z,101694.94
2023-01-28T08:24:32.516Z,101696.50
2023-01-28T08:25:35.846Z,101691.56
2023-01-28T08:26:38.526Z,101698.56
2023-01-28T08:27:41.467Z,101688.94
2023-01-28T08:28:43.926Z,101694.22
2023-01-28T08:29:45.395Z,101669.63
2023-01-28T08:30:48.283Z,101698.34
2023-01-28T08:31:50.161Z,101699.34
2023-01-28T08:32:52.673Z,101709.63
2023-01-28T08:33:54.274Z,101672.81
2023-01-28T08:34:56.839Z,101689.19
2023-01-28T08:35:58.376Z,101689.81
2023-01-28T08:37:00.828Z,101702.16
2023-01-28T08:38:04.365Z,101668.84
2023-01-28T08:39:06.820Z,101691.16
2023-01-28T08:40:10.041Z,101708.88
2023-01-28T08:41:12.463Z,101704.97
2023-01-28T08:42:14.027Z,101704.09
2023-01-28T08:43:18.133Z,101684.94
2023-01-28T08:44:19.743Z,101699.84
2023-01-28T08:45:27.518Z,101688.56
2023-01-28T08:46:30.568Z,101679.41
2023-01-28T08:47:33.078Z,101673.34
2023-01-28T08:48:34.701Z,101677.81
2023-01-28T08:49:37.259Z,101693.75
2023-01-28T08:50:39.838Z,101690.16
2023-01-28T08:51:42.362Z,101698.84
2023-01-28T08:52:44.591Z,101694.25
2023-01-28T08:53:47.260Z,101681.25
2023-01-28T08:54:50.655Z,101684.16
2023-01-28T08:55:55.064Z,101700.38
2023-01-28T08:56:56.588Z,101704.91
2023-01-28T08:58:02.775Z,101700.75
2023-01-28T08:59:06.599Z,101703.38
2023-01-28T09:00:10.893Z,101706.66
2023-01-28T09:01:13.346Z,101702.09
2023-01-28T09:02:30.340Z,101708.56
2023-01-28T09:03:33.894Z,101715.72
2023-01-28T09:04:35.386Z,101695.78
2023-01-28T09:05:38.557Z,101706.44
2023-01-28T09:06:41.165Z,101693.56
2023-01-28T09:07:42.686Z,101689.13
2023-01-28T09:08:45.264Z,101712.47
2023-01-28T09:09:47.187Z,101690.69
2023-01-28T09:10:49.679Z,101706.72
2023-01-28T09:11:51.387Z,101717.84
2023-01-28T09:12:53.861Z,101700.66
2023-01-28T09:13:58.905Z,101702.72
2023-01-28T09:15:01.879Z,101722.56
2023-01-28T09:16:06.207Z,101720.22
2023-01-28T09:17:07.668Z,101719.50
2023-01-28T09:18:12.924Z,101724.78
2023-01-28T09:19:15.797Z,101690.50
2023-01-28T09:20:18.621Z,101727.47
2023-01-28T09:21:20.251Z,101717.66
2023-01-28T09:22:22.770Z,101726.16
2023-01-28T09:23:24.482Z,101727.28
2023-01-28T09:24:27.348Z,101731.00
2023-01-28T09:25:29.044Z,101728.13
2023-01-28T09:26:34.495Z,101707.47
2023-01-28T09:27:36.091Z,101696.06
2023-01-28T09:28:40.143Z,101726.25
2023-01-28T09:29:41.738Z,101716.88
2023-01-28T09:30:45.579Z,101719.16
2023-01-28T09:31:47.302Z,101703.94
2023-01-28T09:32:51.738Z,101717.41
2023-01-28T09:33:57.133Z,101728.59
2023-01-28T09:34:58.806Z,101709.41
2023-01-28T09:36:02.256Z,101722.78
2023-01-28T09:37:03.847Z,101703.44
2023-01-28T09:38:06.657Z,101729.44
2023-01-28T09:39:08.459Z,101708.66
2023-01-28T09:40:16.478Z,101747.91
2023-01-28T09:41:25.931Z,101740.56
2023-01-28T09:42:44.604Z,101751.16
2023-01-28T09:44:01.819Z,101750.91
2023-01-28T09:45:13.324Z,101727.66
2023-01-28T09:46:18.512Z,101724.50
2023-01-28T09:47:27.194Z,101741.00
2023-01-28T09:48:37.950Z,101753.38
2023-01-28T09:49:44.249Z,101757.03
2023-01-28T09:50:49.700Z,101752.63
2023-01-28T09:51:54.663Z,101763.50
2023-01-28T09:53:03.126Z,101757.31
2023-01-28T09:54:13.641Z,101757.59
2023-01-28T09:55:23.754Z,101753.50
2023-01-28T09:56:28.953Z,101761.69
2023-01-28T09:57:39.511Z,101745.94
2023-01-28T09:58:42.359Z,101737.56
2023-01-28T09:59:44.851Z,101753.59
2023-01-28T10:00:55.051Z,101772.78
2023-01-28T10:02:04.080Z,101754.44
2023-01-28T10:03:42.272Z,101772.78
2023-01-28T10:04:53.623Z,101766.69
2023-01-28T10:06:06.447Z,101766.38
2023-01-28T10:07:21.318Z,101764.63
2023-01-28T10:08:38.072Z,101765.47
2023-01-28T10:09:48.340Z,101773.69
2023-01-28T10:10:57.782Z,101767.69
2023-01-28T10:12:10.843Z,101758.44
2023-01-28T10:13:38.003Z,101761.28
2023-01-28T10:14:51.556Z,101756.50
2023-01-28T10:16:17.932Z,101769.78
2023-01-28T10:17:27.072Z,101773.69
2023-01-28T10:18:38.202Z,101766.03
2023-01-28T10:19:43.808Z,101753.63
2023-01-28T10:20:49.920Z,101765.41
2023-01-28T10:21:57.124Z,101766.50
2023-01-28T10:23:05.825Z,101774.16
2023-01-28T10:24:16.941Z,101773.81
2023-01-28T10:25:20.934Z,101776.28
2023-01-28T10:26:26.513Z,101777.44
2023-01-28T10:27:30.744Z,101779.94
2023-01-28T10:28:35.830Z,101772.41
2023-01-28T10:29:39.901Z,101748.06
2023-01-28T10:30:46.501Z,101736.72
2023-01-28T10:31:54.628Z,101757.13
2023-01-28T10:33:03.392Z,101765.97
2023-01-28T10:34:05.870Z,101728.59
2023-01-28T10:35:09.178Z,101747.03
2023-01-28T10:36:10.703Z,101769.72
2023-01-28T10:37:15.065Z,101763.53
2023-01-28T10:38:20.557Z,101763.06
2023-01-28T10:39:26.311Z,101764.56
2023-01-28T10:40:28.110Z,101743.50
2023-01-28T10:41:30.697Z,101758.78
2023-01-28T10:42:33.950Z,101731.63
2023-01-28T10:43:39.880Z,101762.22
2023-01-28T10:44:45.068Z,101755.28
2023-01-28T10:45:56.532Z,101762.56
2023-01-28T10:47:03.417Z,101754.53
2023-01-28T10:48:13.788Z,101741.38
2023-01-28T10:49:19.736Z,101748.69
2023-01-28T10:50:23.733Z,101739.72
2023-01-28T10:51:34.786Z,101745.09
2023-01-28T10:52:37.562Z,101758.78
2023-01-28T10:53:41.218Z,101763.53
2023-01-28T10:54:43.771Z,101743.38
2023-01-28T10:55:50.747Z,101749.72
2023-01-28T10:56:56.699Z,101735.72
2023-01-28T10:57:59.222Z,101749.63
2023-01-28T10:59:03.508Z,101752.31
2023-01-28T11:00:22.900Z,101761.44
2023-01-28T11:01:25.838Z,101760.59
2023-01-28T11:02:32.998Z,101748.19
2023-01-28T11:03:36.235Z,101748.56
2023-01-28T11:04:38.882Z,101733.22
2023-01-28T11:05:51.186Z,101739.13
2023-01-28T11:06:59.615Z,101744.19
2023-01-28T11:08:15.281Z,101735.38
2023-01-28T11:09:25.196Z,101754.22
2023-01-28T11:10:33.003Z,101748.09
2023-01-28T11:11:34.573Z,101747.03
2023-01-28T11:12:37.073Z,101760.25
2023-01-28T11:13:50.471Z,101758.38
2023-01-28T11:14:54.825Z,101747.34
2023-01-28T11:16:02.160Z,101742.59
2023-01-28T11:17:04.849Z,101747.56
2023-01-28T11:18:18.040Z,101752.69
2023-01-28T11:19:26.595Z,101740.06
2023-01-28T11:20:32.530Z,101745.66
2023-01-28T11:21:35.465Z,101717.66
2023-01-28T11:22:41.014Z,101738.81
2023-01-28T11:23:50.627Z,101760.44
2023-01-28T11:24:53.492Z,101749.03
2023-01-28T11:26:06.928Z,101740.72
2023-01-28T11:27:17.293Z,101752.69
2023-01-28T11:28:23.452Z,101744.69
2023-01-28T11:29:30.631Z,101748.03
2023-01-28T11:30:36.554Z,101761.47
2023-01-28T11:31:44.019Z,101718.00
2023-01-28T11:32:46.986Z,101741.25
2023-01-28T11:33:50.929Z,101748.28
2023-01-28T11:34:58.374Z,101731.63
2023-01-28T11:36:07.063Z,101741.06
2023-01-28T11:37:16.394Z,101745.84
2023-01-28T11:38:20.348Z,101735.25
2023-01-28T11:39:26.076Z,101738.31
2023-01-28T11:40:28.477Z,101706.72
2023-01-28T11:41:32.968Z,101733.38
2023-01-28T11:42:34.429Z,101746.91
2023-01-28T11:43:36.871Z,101748.59
2023-01-28T11:44:39.192Z,101750.47
2023-01-28T11:45:49.392Z,101749.16
2023-01-28T11:47:05.975Z,101746.19
2023-01-28T11:48:22.519Z,101741.44
2023-01-28T11:49:36.790Z,101752.75
2023-01-28T11:50:47.216Z,101744.09
2023-01-28T11:51:57.122Z,101749.94
2023-01-28T11:53:16.772Z,101713.63
2023-01-28T11:54:33.694Z,101748.78
2023-01-28T11:55:45.209Z,101746.50
2023-01-28T11:57:03.007Z,101744.81
2023-01-28T11:58:18.854Z,101747.59
2023-01-28T11:59:42.937Z,101740.47
2023-01-28T12:00:53.434Z,101701.94
2023-01-28T12:02:00.012Z,101723.44
2023-01-28T12:03:25.049Z,101744.03
2023-01-28T12:04:50.219Z,101739.22
2023-01-28T12:05:55.291Z,101730.63
2023-01-28T12:07:11.623Z,101720.91
2023-01-28T12:08:23.351Z,101735.63
2023-01-28T12:09:33.216Z,101701.72
2023-01-28T12:10:40.896Z,101738.69
2023-01-28T12:12:14.197Z,101710.59
2023-01-28T12:13:31.015Z,101729.50
2023-01-28T12:14:47.987Z,101732.84
2023-01-28T12:16:28.464Z,101748.88
2023-01-28T12:17:45.011Z,101743.97
2023-01-28T12:19:09.576Z,101747.41
2023-01-28T12:20:23.363Z,101738.84
2023-01-28T12:21:38.702Z,101734.13
2023-01-28T12:22:56.561Z,101720.78
2023-01-28T12:24:12.920Z,101729.31
2023-01-28T12:25:37.673Z,101712.13
2023-01-28T12:26:49.242Z,101728.47
2023-01-28T12:27:56.954Z,101736.25
2023-01-28T12:29:18.895Z,101731.28